Time;durP1;ratioP1;P1;durP2;ratioP2;P2;SDS_P1;SDS_P2;PMS_P1;PMS_P2;Temp;Humidity;BMP_temperature;BMP_pressure;BME280_temperature;BME280_humidity;BME280_pressure;Samples;Min_cycle;Max_cycle;Signal;HPM_P1;HPM_P2
2021/12/03 00:00:58;;;;;;;7.00;4.30;;;;;;;2.56;74.76;99104.53;5050788;28;20049;-64
2021/12/03 00:03:25;;;;;;;6.53;4.03;;;;;;;2.58;75.05;99107.91;5050724;28;20080;-62
2021/12/03 00:05:55;;;;;;;7.32;4.13;;;;;;;2.58;75.07;99107.91;5049543;28;20053;-64
2021/12/03 00:08:23;;;;;;;6.72;4.00;;;;;;;2.59;75.18;99098.38;5050794;28;20724;-64
2021/12/03 00:10:57;;;;;;;13.20;4.75;;;;;;;2.59;74.92;99104.41;5050485;28;20049;-65
2021/12/03 00:13:25;;;;;;;8.23;4.38;;;;;;;2.60;75.11;99098.31;5050612;28;20505;-61
2021/12/03 00:15:54;;;;;;;7.35;4.40;;;;;;;2.62;74.75;99100.00;5050307;28;20071;-63
2021/12/03 00:18:21;;;;;;;6.32;4.53;;;;;;;2.64;74.94;99103.38;5050702;28;20064;-63
2021/12/03 00:20:49;;;;;;;10.40;5.22;;;;;;;2.63;74.71;99102.56;5050428;28;20051;-63
2021/12/03 00:23:17;;;;;;;7.38;4.53;;;;;;;2.63;74.49;99107.75;5050715;28;20055;-63
2021/12/03 00:25:44;;;;;;;8.95;5.32;;;;;;;2.62;74.59;99106.06;5050686;28;20075;-65
2021/12/03 00:28:12;;;;;;;8.35;5.05;;;;;;;2.60;74.02;99113.06;5048842;28;20084;-65
2021/12/03 00:30:39;;;;;;;7.95;4.13;;;;;;;2.58;74.26;99107.06;5050285;28;20049;-62
2021/12/03 00:33:07;;;;;;;8.35;4.50;;;;;;;2.56;74.63;99116.66;5050677;28;20064;-66
2021/12/03 00:35:34;;;;;;;9.27;5.10;;;;;;;2.55;74.35;99120.16;5050110;28;20057;-64
2021/12/03 00:38:01;;;;;;;7.57;5.50;;;;;;;2.53;74.40;99119.34;5050324;28;20052;-63
2021/12/03 00:40:31;;;;;;;8.77;5.28;;;;;;;2.52;74.52;99118.53;5050018;28;20071;-61
2021/12/03 00:42:59;;;;;;;9.38;5.32;;;;;;;2.53;74.70;99125.41;5049014;28;20045;-64
2021/12/03 00:45:26;;;;;;;6.95;5.07;;;;;;;2.52;74.52;99115.94;5048998;28;20053;-65
2021/12/03 00:47:52;;;;;;;15.32;6.15;;;;;;;2.52;74.46;99107.28;5050591;28;20045;-63
2021/12/03 00:50:22;;;;;;;10.35;5.30;;;;;;;2.50;74.73;99109.09;5049735;28;20045;-63
2021/12/03 00:52:50;;;;;;;12.25;6.03;;;;;;;2.48;74.40;99115.16;5050294;28;20087;-63
2021/12/03 00:55:18;;;;;;;12.15;7.00;;;;;;;2.45;73.71;99117.03;5049321;28;20532;-64
2021/12/03 00:57:45;;;;;;;9.00;6.65;;;;;;;2.42;74.25;99117.13;5051129;28;20045;-61
2021/12/03 01:00:16;;;;;;;10.93;5.72;;;;;;;2.38;74.35;99124.19;5054005;28;20057;-62
2021/12/03 01:02:43;;;;;;;9.50;5.43;;;;;;;2.36;74.15;99125.13;5052886;28;20049;-62
2021/12/03 01:05:10;;;;;;;8.55;6.03;;;;;;;2.34;74.37;99127.78;5053954;28;20060;-62
2021/12/03 01:07:37;;;;;;;10.40;6.65;;;;;;;2.32;74.42;99127.00;5053941;28;20476;-64
2021/12/03 01:10:06;;;;;;;8.98;5.65;;;;;;;2.31;74.52;99122.66;5052233;28;20053;-63
2021/12/03 01:12:34;;;;;;;11.02;6.07;;;;;;;2.29;74.12;99121.88;5052939;28;20064;-63
2021/12/03 01:15:01;;;;;;;9.25;6.13;;;;;;;2.29;74.41;99127.09;5052571;28;20150;-63
2021/12/03 01:17:28;;;;;;;9.23;5.60;;;;;;;2.28;74.95;99126.22;5052597;28;20044;-62
2021/12/03 01:19:55;;;;;;;11.35;6.88;;;;;;;2.29;75.05;99140.94;5053359;28;20045;-63
2021/12/03 01:22:21;;;;;;;15.50;6.72;;;;;;;2.29;74.70;99138.34;5053684;28;20049;-63
2021/12/03 01:24:48;;;;;;;11.00;5.95;;;;;;;2.30;74.76;99142.63;5053608;28;20386;-64
2021/12/03 01:27:15;;;;;;;9.13;6.32;;;;;;;2.30;74.84;99133.97;5053716;28;20052;-62
2021/12/03 01:29:42;;;;;;;8.18;6.20;;;;;;;2.30;74.69;99128.78;5053514;28;20045;-62
2021/12/03 01:32:08;;;;;;;8.75;5.55;;;;;;;2.29;74.85;99132.28;5053428;28;20064;-62
2021/12/03 01:34:36;;;;;;;10.93;6.65;;;;;;;2.27;74.29;99136.66;5052418;28;20412;-64
2021/12/03 01:37:03;;;;;;;10.52;6.30;;;;;;;2.27;74.51;99140.13;5053074;28;20437;-66
2021/12/03 01:39:30;;;;;;;9.70;6.63;;;;;;;2.25;74.14;99131.53;5053450;28;20099;-63
2021/12/03 01:41:57;;;;;;;12.18;6.88;;;;;;;2.25;74.55;99143.66;5053369;28;20051;-63
2021/12/03 01:44:23;;;;;;;9.88;6.30;;;;;;;2.23;74.73;99143.72;5053377;28;20086;-65
2021/12/03 01:46:50;;;;;;;8.57;6.82;;;;;;;2.22;74.79;99136.81;5053294;28;20053;-64
2021/12/03 01:49:17;;;;;;;10.40;8.55;;;;;;;2.19;74.66;99132.59;5053207;28;20084;-64
2021/12/03 01:51:44;;;;;;;12.32;8.43;;;;;;;2.16;74.62;99127.47;5052851;28;20091;-65
2021/12/03 01:54:11;;;;;;;12.48;8.07;;;;;;;2.15;74.63;99132.72;5053098;28;20080;-64
2021/12/03 01:56:39;;;;;;;11.38;7.90;;;;;;;2.13;74.23;99137.97;5052989;28;20045;-62
2021/12/03 01:59:07;;;;;;;9.75;8.15;;;;;;;2.11;74.61;99133.72;5052818;28;20048;-66
2021/12/03 02:01:34;;;;;;;13.43;7.97;;;;;;;2.09;74.47;99131.16;5052912;28;20536;-63
2021/12/03 02:04:03;;;;;;;10.55;7.82;;;;;;;2.06;74.58;99132.13;5051788;28;20057;-63
2021/12/03 02:06:31;;;;;;;13.55;8.77;;;;;;;2.06;74.88;99133.88;5052864;28;20135;-63
2021/12/03 02:09:00;;;;;;;14.35;8.27;;;;;;;2.05;75.40;99129.56;5050713;28;20444;-63
2021/12/03 02:11:27;;;;;;;12.43;8.73;;;;;;;2.06;75.31;99132.13;5052536;28;20045;-63
2021/12/03 02:13:55;;;;;;;11.63;9.07;;;;;;;2.06;75.07;99137.31;5052843;28;20049;-63
2021/12/03 02:16:24;;;;;;;14.02;9.30;;;;;;;2.07;74.83;99127.78;5051346;28;20059;-64
2021/12/03 02:18:51;;;;;;;16.55;9.80;;;;;;;2.06;74.50;99137.31;5051352;28;20048;-63
2021/12/03 02:21:19;;;;;;;13.27;10.13;;;;;;;2.06;74.73;99126.09;5052268;28;20049;-63
2021/12/03 02:23:46;;;;;;;13.00;10.23;;;;;;;2.05;74.35;99133.03;5035238;28;20060;-64
2021/12/03 02:26:14;;;;;;;14.95;9.65;;;;;;;2.04;74.66;99138.25;5051207;28;20049;-62
2021/12/03 02:28:47;;;;;;;16.05;10.48;;;;;;;2.00;73.99;99128.88;5051323;28;20060;-64
2021/12/03 02:31:15;;;;;;;;;;;;;;;1.99;73.58;99129.78;5051353;28;20049;-63
2021/12/03 02:33:42;;;;;;;17.88;9.93;;;;;;;1.99;74.31;99129.78;5051392;28;19920;-62
2021/12/03 02:36:09;;;;;;;16.15;11.23;;;;;;;1.93;74.13;99131.66;5052223;28;20073;-63
2021/12/03 02:38:36;;;;;;;17.27;12.13;;;;;;;1.89;74.38;99124.88;5052230;28;20045;-64
2021/12/03 02:41:04;;;;;;;22.35;13.40;;;;;;;1.83;74.73;99130.25;5050778;28;20558;-63
2021/12/03 02:43:31;;;;;;;18.02;11.90;;;;;;;1.82;74.88;99129.41;5051972;28;20057;-65
2021/12/03 02:45:58;;;;;;;20.98;12.63;;;;;;;1.78;74.54;99130.41;5052017;28;20041;-64
2021/12/03 02:48:26;;;;;;;20.30;12.77;;;;;;;1.76;75.13;99127.00;5051829;28;20075;-64
2021/12/03 02:50:54;;;;;;;21.77;12.88;;;;;;;1.76;75.29;99128.75;5051909;28;20049;-65
2021/12/03 02:53:21;;;;;;;19.55;13.00;;;;;;;1.74;75.38;99128.78;5050732;28;20060;-63
2021/12/03 02:55:49;;;;;;;17.02;12.75;;;;;;;1.75;75.67;99127.06;5050751;28;20061;-63
2021/12/03 02:58:16;;;;;;;19.15;13.40;;;;;;;1.74;74.91;99130.53;5051856;28;20045;-63
2021/12/03 03:00:44;;;;;;;19.65;14.68;;;;;;;1.72;75.67;99134.94;5051488;28;20123;-63
2021/12/03 03:03:11;;;;;;;22.00;15.25;;;;;;;1.70;75.18;99129.78;5050419;28;20485;-63
2021/12/03 03:05:38;;;;;;;26.45;14.60;;;;;;;1.71;75.61;99130.66;5050620;28;20052;-64
2021/12/03 03:08:05;;;;;;;25.73;14.98;;;;;;;1.72;75.06;99127.16;5051481;28;20057;-64
2021/12/03 03:10:39;;;;;;;27.48;15.60;;;;;;;1.73;75.80;99134.03;5051366;28;20045;-62
2021/12/03 03:13:05;;;;;;;27.25;15.43;;;;;;;1.71;75.41;99131.47;5051457;28;20496;-62
2021/12/03 03:15:32;;;;;;;25.92;16.10;;;;;;;1.73;76.32;99123.66;5051458;28;20049;-64
2021/12/03 03:18:21;;;;;;;48.88;16.80;;;;;;;1.70;75.26;99137.56;5050200;28;20057;-64
2021/12/03 03:20:49;;;;;;;31.10;15.05;;;;;;;1.74;75.41;99135.72;5051249;28;20045;-63
2021/12/03 03:23:18;;;;;;;22.92;15.65;;;;;;;1.71;75.05;99143.63;5051164;28;20049;-63
2021/12/03 03:25:45;;;;;;;26.73;16.77;;;;;;;1.71;75.26;99141.03;5051453;28;20076;-63
2021/12/03 03:28:14;;;;;;;28.33;16.40;;;;;;;1.69;75.42;99146.25;5051520;28;20044;-63
2021/12/03 03:30:43;;;;;;;26.40;17.60;;;;;;;1.67;75.32;99135.06;5049909;28;20422;-63
2021/12/03 03:33:11;;;;;;;24.52;17.13;;;;;;;1.67;75.60;99135.06;5050185;28;20061;-63
2021/12/03 03:35:38;;;;;;;36.78;17.92;;;;;;;1.65;75.27;99137.69;5049834;28;20501;-63
2021/12/03 03:38:05;;;;;;;26.58;16.90;;;;;;;1.65;75.76;99137.69;5050942;28;20055;-63
2021/12/03 03:40:33;;;;;;;27.25;16.85;;;;;;;1.63;74.98;99118.75;5050115;28;20057;-63
2021/12/03 03:43:01;;;;;;;55.80;19.23;;;;;;;1.62;75.49;99121.38;5049832;28;20056;-65
2021/12/03 03:45:30;;;;;;;24.50;16.42;;;;;;;1.62;75.25;99121.38;5049765;28;20566;-63
2021/12/03 03:47:57;;;;;;;34.05;17.58;;;;;;;1.61;75.60;99112.75;5049636;28;20135;-64
2021/12/03 03:50:25;;;;;;;50.50;19.75;;;;;;;1.60;75.47;99113.66;5049676;28;20057;-63
2021/12/03 03:52:53;;;;;;;69.03;19.38;;;;;;;1.61;75.47;99120.53;5049765;28;20163;-63
2021/12/03 03:55:21;;;;;;;71.35;20.17;;;;;;;1.61;75.74;99112.75;5049904;28;20049;-65
2021/12/03 03:57:50;;;;;;;68.35;20.27;;;;;;;1.59;75.62;99119.72;5049573;28;20052;-64
2021/12/03 04:00:21;;;;;;;89.55;21.77;;;;;;;1.59;75.86;99117.13;5049330;28;20060;-63
2021/12/03 04:02:48;;;;;;;79.57;20.67;;;;;;;1.58;75.89;99106.81;5049731;28;20057;-62
2021/12/03 04:05:15;;;;;;;226.35;25.73;;;;;;;1.57;75.64;99111.13;5050537;28;20098;-63
2021/12/03 04:07:42;;;;;;;129.77;22.65;;;;;;;1.58;75.86;99110.25;5050691;28;20041;-63
2021/12/03 04:10:10;;;;;;;166.80;25.13;;;;;;;1.55;76.01;99103.44;5050327;28;20048;-63
2021/12/03 04:12:38;;;;;;;130.30;21.15;;;;;;;1.57;75.76;99103.34;5050651;28;20061;-63
2021/12/03 04:15:07;;;;;;;196.05;27.67;;;;;;;1.55;75.86;99106.03;5049349;28;20060;-65
2021/12/03 04:17:33;;;;;;;180.77;25.38;;;;;;;1.56;76.55;99099.94;5049401;28;20421;-62
2021/12/03 04:20:01;;;;;;;149.40;22.40;;;;;;;1.60;76.53;99105.03;5050281;28;20052;-62
2021/12/03 04:22:27;;;;;;;166.32;25.15;;;;;;;1.61;76.24;99098.94;5049097;28;20049;-63
2021/12/03 04:24:55;;;;;;;295.42;28.70;;;;;;;1.61;76.24;99104.97;5050668;28;20053;-63
2021/12/03 04:27:27;;;;;;;193.45;25.08;;;;;;;1.64;76.77;99093.66;5050451;28;20497;-65
2021/12/03 04:29:54;;;;;;;179.48;26.70;;;;;;;1.66;76.83;99097.91;5050125;28;20056;-63
2021/12/03 04:32:22;;;;;;;139.82;22.98;;;;;;;1.68;76.60;99090.06;5052030;28;20505;-64
2021/12/03 04:34:49;;;;;;;256.80;26.95;;;;;;;1.71;76.45;99091.72;5054532;28;20075;-64
2021/12/03 04:37:15;;;;;;;167.00;24.50;;;;;;;1.73;77.08;99093.38;5054730;28;20080;-64
2021/12/03 04:39:42;;;;;;;207.88;27.92;;;;;;;1.75;76.47;99090.72;5053150;28;20053;-64
2021/12/03 04:42:09;;;;;;;191.65;27.45;;;;;;;1.78;76.60;99085.44;5054512;28;20052;-65
2021/12/03 04:44:37;;;;;;;197.57;27.17;;;;;;;1.80;76.78;99084.47;5054431;28;20115;-64
2021/12/03 04:47:04;;;;;;;230.50;25.65;;;;;;;1.83;76.79;99083.53;5054623;28;20045;-65
2021/12/03 04:49:30;;;;;;;211.05;25.67;;;;;;;1.85;76.96;99079.16;5054127;28;20071;-63
2021/12/03 04:51:57;;;;;;;265.33;28.50;;;;;;;1.89;77.14;99080.75;5054340;28;20049;-64
2021/12/03 04:54:24;;;;;;;221.60;26.70;;;;;;;1.92;76.99;99085.84;5054365;28;20119;-64
2021/12/03 04:56:50;;;;;;;151.90;24.73;;;;;;;1.95;77.41;99087.50;5054277;28;20044;-63
2021/12/03 04:59:17;;;;;;;211.20;27.55;;;;;;;1.98;76.95;99096.94;5053911;28;20057;-63
2021/12/03 05:01:44;;;;;;;145.02;25.40;;;;;;;2.01;76.87;99084.69;5054060;28;20432;-63
2021/12/03 05:04:11;;;;;;;98.18;23.10;;;;;;;2.04;76.94;99089.78;5054206;28;20057;-63
2021/12/03 05:06:55;;;;;;;168.20;24.88;;;;;;;2.08;76.86;99095.72;5054124;28;20065;-65
2021/12/03 05:09:22;;;;;;;171.45;26.23;;;;;;;2.10;77.29;99086.16;5053923;28;20481;-64
2021/12/03 05:11:49;;;;;;;160.88;26.80;;;;;;;2.13;77.07;99086.03;5053846;28;20045;-64
2021/12/03 05:14:16;;;;;;;165.95;25.15;;;;;;;2.16;76.56;99098.91;5052875;28;20083;-63
2021/12/03 05:16:45;;;;;;;153.95;24.13;;;;;;;2.19;76.85;99088.44;5053759;28;20053;-63
2021/12/03 05:19:12;;;;;;;254.30;28.83;;;;;;;2.22;76.98;99095.28;5053670;28;20052;-63
2021/12/03 05:21:39;;;;;;;199.95;27.60;;;;;;;2.24;77.19;99090.88;5052744;28;20049;-63
2021/12/03 05:24:06;;;;;;;185.35;27.23;;;;;;;2.26;76.97;99081.28;5053669;28;20057;-64
2021/12/03 05:26:34;;;;;;;233.45;29.95;;;;;;;2.28;76.70;99083.84;5053789;28;20056;-62
2021/12/03 05:29:02;;;;;;;219.43;27.33;;;;;;;2.28;76.96;99095.06;5052443;28;20056;-63
2021/12/03 05:31:29;;;;;;;150.50;27.45;;;;;;;2.30;76.78;99092.41;5051871;28;20432;-63
2021/12/03 05:33:55;;;;;;;119.78;25.50;;;;;;;2.32;76.65;99104.44;5053596;28;20049;-63
2021/12/03 05:36:22;;;;;;;150.30;26.25;;;;;;;2.31;76.74;99101.91;5053381;28;20053;-65
2021/12/03 05:38:49;;;;;;;150.43;25.63;;;;;;;2.32;76.64;99101.03;5053243;28;20049;-63
2021/12/03 05:41:33;;;;;;;103.10;25.98;;;;;;;2.36;77.05;99101.75;5053496;28;20052;-64
2021/12/03 05:44:00;;;;;;;88.43;26.05;;;;;;;2.35;76.63;99095.69;5053604;28;20045;-63
2021/12/03 05:46:27;;;;;;;106.97;26.85;;;;;;;2.37;76.93;99104.31;5053052;28;20049;-64
2021/12/03 05:48:54;;;;;;;109.22;26.23;;;;;;;2.38;76.74;99107.72;5053131;28;20131;-63
2021/12/03 05:51:21;;;;;;;90.90;25.30;;;;;;;2.39;76.48;99091.28;5052778;28;20048;-66
2021/12/03 05:53:47;;;;;;;150.48;29.38;;;;;;;2.39;76.53;99089.50;5053151;28;20079;-63
2021/12/03 05:56:14;;;;;;;193.77;29.42;;;;;;;2.39;77.00;99084.31;5051735;28;20091;-64
2021/12/03 05:58:40;;;;;;;118.63;25.13;;;;;;;2.41;76.86;99089.44;5051946;28;20056;-63
2021/12/03 06:01:07;;;;;;;142.73;28.23;;;;;;;2.41;76.97;99092.91;5052587;28;20098;-64
2021/12/03 06:03:34;;;;;;;156.65;28.05;;;;;;;2.43;76.84;99083.31;5052960;28;20053;-63
2021/12/03 06:06:01;;;;;;;134.48;26.20;;;;;;;2.42;77.02;99089.41;5051405;28;20057;-63
2021/12/03 06:08:28;;;;;;;120.53;27.85;;;;;;;2.43;76.84;99088.50;5053026;28;20080;-63
2021/12/03 06:10:54;;;;;;;101.20;27.73;;;;;;;2.41;76.60;99090.31;5052634;28;20110;-63
2021/12/03 06:13:21;;;;;;;139.82;28.05;;;;;;;2.42;76.58;99092.00;5052670;28;20045;-65
2021/12/03 06:15:48;;;;;;;165.63;29.25;;;;;;;2.42;76.72;99102.38;5052576;28;20056;-63
2021/12/03 06:18:14;;;;;;;94.72;27.10;;;;;;;2.43;76.84;99101.47;5052603;28;20081;-63
2021/12/03 06:20:41;;;;;;;115.43;27.45;;;;;;;2.43;77.04;99100.66;5052475;28;20052;-65
2021/12/03 06:23:08;;;;;;;102.65;27.88;;;;;;;2.43;76.54;99098.06;5052601;28;20056;-63
2021/12/03 06:25:34;;;;;;;96.55;28.70;;;;;;;2.44;77.04;99102.34;5052573;28;20405;-63
2021/12/03 06:28:01;;;;;;;160.85;30.15;;;;;;;2.43;76.60;99122.25;5051134;28;20485;-63
2021/12/03 06:30:28;;;;;;;121.78;29.90;;;;;;;2.46;76.50;99103.13;5052408;28;20053;-63
2021/12/03 06:32:55;;;;;;;141.00;29.67;;;;;;;2.45;76.94;99099.69;5052224;28;20060;-64
2021/12/03 06:35:23;;;;;;;101.40;28.73;;;;;;;2.47;76.87;99092.69;5051290;28;20052;-63
2021/12/03 06:37:50;;;;;;;185.45;31.58;;;;;;;2.48;76.72;99091.78;5052382;28;20558;-66
2021/12/03 06:40:21;;;;;;;160.63;30.63;;;;;;;2.49;76.93;99097.84;5051007;28;20382;-63
2021/12/03 06:42:48;;;;;;;239.20;32.83;;;;;;;2.48;76.75;99096.97;5051683;28;20048;-64
2021/12/03 06:45:15;;;;;;;191.25;31.50;;;;;;;2.50;77.13;99086.53;5052151;28;20060;-64
2021/12/03 06:47:42;;;;;;;178.30;33.05;;;;;;;2.51;77.15;99085.66;5050861;28;20057;-65
2021/12/03 06:50:12;;;;;;;119.72;30.08;;;;;;;2.50;76.68;99088.31;5050697;28;20060;-63
2021/12/03 06:52:41;;;;;;;113.03;30.75;;;;;;;2.52;76.54;99089.94;5050790;28;20048;-63
2021/12/03 06:55:11;;;;;;;127.93;28.48;;;;;;;2.53;77.18;99089.03;5050362;28;20052;-65
2021/12/03 06:57:41;;;;;;;83.38;29.35;;;;;;;2.54;76.90;99088.13;5051865;28;20044;-63
2021/12/03 07:00:10;;;;;;;103.05;33.33;;;;;;;2.54;76.55;99102.88;5051745;28;20099;-63
2021/12/03 07:02:36;;;;;;;82.63;31.33;;;;;;;2.55;77.03;99100.22;5051941;28;20056;-64
2021/12/03 07:05:04;;;;;;;69.40;28.85;;;;;;;2.56;77.28;99104.53;5052097;28;20106;-63
2021/12/03 07:07:31;;;;;;;65.78;28.83;;;;;;;2.59;77.07;99103.56;5051575;28;20052;-63
2021/12/03 07:10:00;;;;;;;86.80;31.42;;;;;;;2.59;77.26;99106.16;5051379;28;20064;-63
2021/12/03 07:12:27;;;;;;;75.25;30.85;;;;;;;2.60;76.81;99093.13;5051426;28;20060;-64
2021/12/03 07:14:54;;;;;;;91.63;33.35;;;;;;;2.62;76.62;99102.59;5052026;28;20059;-64
2021/12/03 07:17:20;;;;;;;106.25;32.33;;;;;;;2.64;76.89;99106.00;5051558;28;20062;-64
2021/12/03 07:19:47;;;;;;;90.95;30.77;;;;;;;2.65;77.04;99105.13;5049986;28;20087;-64
2021/12/03 07:22:14;;;;;;;95.95;32.42;;;;;;;2.66;77.25;99107.66;5051230;28;20049;-63
2021/12/03 07:24:40;;;;;;;72.53;29.20;;;;;;;2.67;76.84;99106.75;5051262;28;20060;-65
2021/12/03 07:27:07;;;;;;;103.43;31.95;;;;;;;2.67;76.67;99100.69;5051589;28;20053;-63
2021/12/03 07:29:34;;;;;;;85.07;28.23;;;;;;;2.70;77.00;99108.38;5051360;28;20049;-62
2021/12/03 07:32:01;;;;;;;86.38;30.38;;;;;;;2.70;77.12;99091.03;5052013;28;20040;-63
2021/12/03 07:34:28;;;;;;;118.20;31.52;;;;;;;2.72;76.97;99093.56;5051631;28;20056;-64
2021/12/03 07:36:55;;;;;;;68.75;27.13;;;;;;;2.74;77.38;99091.78;5051358;28;20096;-63
2021/12/03 07:39:21;;;;;;;70.63;29.83;;;;;;;2.76;77.51;99087.38;5051025;28;20045;-64
2021/12/03 07:41:48;;;;;;;84.28;29.13;;;;;;;2.78;76.81;99087.31;5051101;28;20053;-65
2021/12/03 07:44:14;;;;;;;63.53;27.17;;;;;;;2.81;76.93;99087.22;5050136;28;20489;-63
2021/12/03 07:46:41;;;;;;;78.43;29.15;;;;;;;2.81;76.91;99080.25;5049486;28;20053;-65
2021/12/03 07:49:08;;;;;;;66.05;29.50;;;;;;;2.82;77.05;99078.50;5050878;28;20049;-63
2021/12/03 07:51:36;;;;;;;79.15;28.73;;;;;;;2.83;76.78;99080.19;5051077;28;20053;-63
2021/12/03 07:54:03;;;;;;;71.93;28.60;;;;;;;2.84;76.79;99081.91;5050826;28;20045;-65
2021/12/03 07:56:30;;;;;;;81.85;28.73;;;;;;;2.86;77.08;99074.91;5050919;28;20056;-64
2021/12/03 07:58:56;;;;;;;70.38;28.55;;;;;;;2.86;76.97;99067.97;5050579;28;20111;-61
2021/12/03 08:01:24;;;;;;;60.97;27.55;;;;;;;2.89;77.13;99071.34;5050713;28;20531;-61
2021/12/03 08:03:51;;;;;;;68.72;27.27;;;;;;;2.89;77.02;99064.41;5049620;28;20118;-63
2021/12/03 08:06:18;;;;;;;70.30;29.38;;;;;;;2.91;77.18;99072.16;5050137;28;20052;-64
2021/12/03 08:08:45;;;;;;;75.60;30.35;;;;;;;2.91;77.12;99077.34;5049284;28;20072;-65
2021/12/03 08:11:11;;;;;;;55.25;26.88;;;;;;;2.92;76.79;99074.66;5050628;28;20056;-66
2021/12/03 08:13:38;;;;;;;59.15;26.58;;;;;;;2.94;76.77;99080.66;5050760;28;20096;-65
2021/12/03 08:16:05;;;;;;;68.28;29.20;;;;;;;2.93;77.11;99078.97;5051041;28;20573;-64
2021/12/03 08:18:32;;;;;;;62.33;28.35;;;;;;;2.97;77.03;99074.50;5050626;28;20489;-63
2021/12/03 08:20:59;;;;;;;59.72;29.45;;;;;;;2.99;77.07;99067.50;5050442;28;20049;-63
2021/12/03 08:23:26;;;;;;;63.42;28.75;;;;;;;3.00;76.72;99077.00;5050387;28;20122;-64
2021/12/03 08:25:53;;;;;;;64.95;29.08;;;;;;;3.03;76.83;99065.63;5050623;28;20061;-63
2021/12/03 08:28:20;;;;;;;63.83;28.40;;;;;;;3.03;76.61;99061.25;5050650;28;20049;-63
2021/12/03 08:30:47;;;;;;;59.75;27.27;;;;;;;3.06;77.15;99065.53;5050439;28;20045;-63
2021/12/03 08:33:15;;;;;;;55.58;26.17;;;;;;;3.06;76.46;99068.97;5050312;28;20052;-63
2021/12/03 08:35:42;;;;;;;58.78;27.85;;;;;;;3.09;76.73;99065.41;5050495;28;20053;-63
2021/12/03 08:38:09;;;;;;;54.63;27.10;;;;;;;3.10;76.84;99080.13;5050386;28;20060;-64
2021/12/03 08:40:55;;;;;;;59.92;28.05;;;;;;;3.11;77.00;99068.81;5050423;28;20055;-62
2021/12/03 08:43:22;;;;;;;57.95;26.92;;;;;;;3.11;76.94;99069.63;5050512;28;20060;-64
2021/12/03 08:45:53;;;;;;;54.92;27.00;;;;;;;3.13;77.02;99073.03;5050235;28;20049;-62
2021/12/03 08:48:22;;;;;;;62.15;28.40;;;;;;;3.15;76.64;99069.53;5050320;28;20056;-61
2021/12/03 08:56:06;;;;;;;70.03;28.52;;;;;;;3.19;77.04;99058.09;5050277;28;20072;-62
2021/12/03 08:58:33;;;;;;;55.85;26.70;;;;;;;3.19;76.77;99058.97;5050087;28;20515;-61
2021/12/03 09:01:00;;;;;;;50.35;25.50;;;;;;;3.21;77.33;99058.91;5049856;28;20053;-61
2021/12/03 09:03:27;;;;;;;53.70;25.23;;;;;;;3.23;76.77;99062.28;5050421;28;20053;-62
2021/12/03 09:05:54;;;;;;;63.22;29.23;;;;;;;3.23;76.75;99064.88;5050218;28;20045;-61
2021/12/03 09:08:21;;;;;;;56.88;27.38;;;;;;;3.24;77.08;99050.97;5050156;28;20048;-62
2021/12/03 09:10:47;;;;;;;53.55;27.30;;;;;;;3.25;76.98;99053.50;5050037;28;20052;-61
2021/12/03 09:13:14;;;;;;;55.40;25.98;;;;;;;3.27;76.96;99058.66;5050148;28;20045;-62
2021/12/03 09:15:46;;;;;;;54.67;27.75;;;;;;;3.26;76.73;99056.97;5050174;28;20084;-62
2021/12/03 09:18:29;;;;;;;55.83;28.30;;;;;;;3.28;76.80;99047.34;5051344;28;20045;-62
2021/12/03 09:21:23;;;;;;;58.60;24.70;;;;;;;3.32;76.76;99051.53;5052622;28;20041;-61
2021/12/03 09:26:22;;;;;;;58.03;27.42;;;;;;;3.36;76.97;99034.03;5052656;28;20095;-62
2021/12/03 09:28:57;;;;;;;48.80;24.70;;;;;;;3.38;77.01;99034.84;5053723;28;20111;-61
2021/12/03 09:31:23;;;;;;;53.35;24.77;;;;;;;3.40;77.31;99038.22;5053472;28;20045;-62
2021/12/03 09:33:50;;;;;;;54.70;24.83;;;;;;;3.43;77.09;99026.88;5053477;28;20084;-62
2021/12/03 09:36:18;;;;;;;47.13;23.02;;;;;;;3.45;77.32;99025.91;5052062;28;20068;-64
2021/12/03 09:38:45;;;;;;;50.03;25.75;;;;;;;3.48;77.18;99030.13;5053605;28;20053;-63
2021/12/03 09:41:15;;;;;;;55.40;24.15;;;;;;;3.50;76.95;99023.09;5053109;28;20059;-63
2021/12/03 09:43:48;;;;;;;44.13;25.30;;;;;;;3.51;76.77;99030.84;5053553;28;20064;-63
2021/12/03 09:46:22;;;;;;;47.70;24.45;;;;;;;3.55;77.33;99026.34;5052068;28;20055;-62
2021/12/03 09:51:36;;;;;;;50.75;23.33;;;;;;;3.62;77.30;99021.75;5052986;28;20045;-62
2021/12/03 09:56:40;;;;;;;47.45;23.63;;;;;;;3.67;76.83;99021.56;5053114;28;20044;-61
2021/12/03 10:01:46;;;;;;;50.10;23.75;;;;;;;3.73;77.00;99024.78;5052997;28;20067;-61
2021/12/03 10:14:49;;;;;;;46.63;22.92;;;;;;;3.89;77.09;99004.16;5052787;28;20053;-62
2021/12/03 10:17:41;;;;;;;50.63;22.95;;;;;;;3.93;76.75;99009.25;5051642;28;20091;-61
2021/12/03 10:39:35;;;;;;;38.67;17.42;;;;;;;4.04;74.76;98976.63;5052365;28;20053;-63
2021/12/03 10:44:49;;;;;;;32.20;17.48;;;;;;;4.12;75.71;98963.25;5052293;28;20052;-65
2021/12/03 10:47:35;;;;;;;35.42;15.07;;;;;;;4.17;75.63;98956.13;5051914;28;20057;-64
2021/12/03 10:53:18;;;;;;;34.78;14.98;;;;;;;4.25;75.40;98928.88;5050940;28;20045;-62
2021/12/03 11:21:06;;;;;;;23.55;10.68;;;;;;;4.49;74.71;98889.63;5051409;28;20448;-63
2021/12/03 11:57:13;;;;;;;15.02;7.22;;;;;;;4.81;72.23;98835.97;5051037;28;20048;-64
2021/12/03 13:14:43;;;;;;;20.00;7.20;;;;;;;4.63;74.00;98724.75;5053841;28;20055;-65
2021/12/03 13:28:32;;;;;;;14.70;7.15;;;;;;;4.62;73.63;98690.03;5053658;28;20053;-63
2021/12/03 14:44:41;;;;;;;18.67;6.35;;;;;;;5.18;72.38;98626.34;5052291;28;20053;-65
2021/12/03 14:47:35;;;;;;;15.85;5.85;;;;;;;5.20;73.12;98634.97;5052456;28;20067;-64
2021/12/03 14:53:18;;;;;;;15.73;5.78;;;;;;;5.20;71.01;98616.69;5052200;28;20061;-63
2021/12/03 14:55:47;;;;;;;15.73;5.47;;;;;;;5.25;72.33;98619.91;5051899;28;20041;-63
2021/12/03 14:58:22;;;;;;;11.65;5.78;;;;;;;5.27;72.24;98623.25;5050752;28;20049;-63
2021/12/03 15:00:55;;;;;;;16.15;7.10;;;;;;;5.28;72.37;98606.69;5051868;28;20064;-64
2021/12/03 15:08:36;;;;;;;16.70;6.28;;;;;;;5.29;71.35;98610.13;5052004;28;20052;-63
2021/12/03 15:54:38;;;;;;;11.70;5.85;;;;;;;5.17;72.66;98601.19;5051082;28;20106;-62
2021/12/03 16:08:20;;;;;;;9.75;6.00;;;;;;;4.91;73.96;98585.16;5050752;28;20053;-63
2021/12/03 16:54:42;;;;;;;13.52;8.43;;;;;;;4.69;75.62;98534.16;5050235;28;20045;-62
2021/12/03 16:57:10;;;;;;;12.63;6.22;;;;;;;4.67;75.61;98526.41;5050523;28;20049;-62
2021/12/03 16:59:40;;;;;;;9.35;7.47;;;;;;;4.69;75.77;98539.38;5049964;28;20049;-62
2021/12/03 17:02:18;;;;;;;11.25;7.03;;;;;;;4.69;75.75;98534.16;5050210;28;20057;-63
2021/12/03 17:45:18;;;;;;;10.30;8.13;;;;;;;4.73;76.29;98530.47;5053386;28;20053;-63
2021/12/03 17:50:38;;;;;;;;;;;;;;;4.72;75.58;98544.44;5053839;28;20056;-63
2021/12/03 18:01:03;;;;;;;13.20;10.50;;;;;;;4.74;76.21;98526.09;5053026;28;20545;-64
2021/12/03 18:03:31;;;;;;;12.93;9.73;;;;;;;4.77;76.48;98524.16;5053173;28;20815;-61
2021/12/03 18:48:58;;;;;;;12.07;9.77;;;;;;;4.92;77.11;98480.78;5052118;28;20052;-62
2021/12/03 18:54:01;;;;;;;12.20;10.27;;;;;;;4.93;76.71;98469.41;5052185;28;20048;-64
2021/12/03 18:56:37;;;;;;;12.95;9.30;;;;;;;4.95;76.88;98477.16;5052037;28;20451;-62
2021/12/03 18:59:07;;;;;;;13.88;10.23;;;;;;;4.97;76.96;98464.06;5050934;28;20049;-62
2021/12/03 19:01:35;;;;;;;12.55;9.57;;;;;;;4.98;77.00;98453.53;5051945;28;20056;-61
2021/12/03 19:04:14;;;;;;;11.63;9.30;;;;;;;4.99;76.74;98456.97;5052001;28;20059;-63
2021/12/03 19:07:07;;;;;;;10.13;9.10;;;;;;;5.01;76.69;98463.78;5051847;28;20060;-62
2021/12/03 19:09:52;;;;;;;10.60;9.50;;;;;;;5.01;76.76;98462.97;5051525;28;20143;-62
2021/12/03 19:12:21;;;;;;;11.40;8.75;;;;;;;5.04;76.64;98453.19;5051652;28;20060;-62
2021/12/03 19:14:53;;;;;;;10.40;9.23;;;;;;;5.05;76.64;98444.44;5050410;28;20057;-63
2021/12/03 19:17:22;;;;;;;10.98;9.38;;;;;;;5.05;76.66;98441.00;5050451;28;20130;-62
2021/12/03 19:19:53;;;;;;;10.52;9.43;;;;;;;5.06;76.79;98440.91;5050140;28;20052;-62
2021/12/03 19:22:21;;;;;;;11.60;9.20;;;;;;;5.07;76.72;98444.34;5050195;28;20049;-61
2021/12/03 19:24:47;;;;;;;11.43;10.13;;;;;;;5.06;76.70;98437.47;5051793;28;20053;-62
2021/12/03 19:27:14;;;;;;;12.60;10.05;;;;;;;5.08;76.61;98438.19;5051261;28;20416;-63